createdAt,value
2022-12-11T00:04:43.954Z,-3.89
2022-12-11T00:09:46.723Z,-3.91
2022-12-11T00:14:49.535Z,-3.89
2022-12-11T00:19:52.293Z,-3.94
2022-12-11T00:24:55.055Z,-3.94
2022-12-11T00:29:57.789Z,-3.92
2022-12-11T00:35:00.516Z,-3.91
2022-12-11T00:40:03.671Z,-3.96
2022-12-11T00:45:06.584Z,-3.96
2022-12-11T00:50:09.491Z,-3.94
2022-12-11T00:55:12.527Z,-4.01
2022-12-11T01:00:15.654Z,-4.05
2022-12-11T01:05:18.535Z,-4.11
2022-12-11T01:10:24.404Z,-4.13
2022-12-11T01:15:31.930Z,-4.11
2022-12-11T01:20:34.794Z,-4.09
2022-12-11T01:25:40.349Z,-4.12
2022-12-11T01:30:43.980Z,-4.15
2022-12-11T01:35:46.786Z,-4.21
2022-12-11T01:40:51.665Z,-4.30
2022-12-11T01:45:54.457Z,-4.38
2022-12-11T01:51:02.967Z,-4.38
2022-12-11T01:56:08.126Z,-4.45
2022-12-11T02:01:18.589Z,-4.49
2022-12-11T02:06:34.137Z,-4.51
2022-12-11T02:12:03.782Z,-4.53
2022-12-11T02:17:15.401Z,-4.51
2022-12-11T02:22:43.494Z,-4.57
2022-12-11T02:27:56.641Z,-4.59
2022-12-11T02:32:59.527Z,-4.60
2022-12-11T02:38:13.721Z,-4.66
2022-12-11T02:43:19.141Z,-4.66
2022-12-11T02:48:24.360Z,-4.68
2022-12-11T02:53:29.964Z,-4.67
2022-12-11T02:58:35.619Z,-4.66
2022-12-11T03:03:38.373Z,-4.67
2022-12-11T03:08:41.123Z,-4.65
2022-12-11T03:13:44.242Z,-4.66
2022-12-11T03:19:06.435Z,-4.75
2022-12-11T03:24:18.789Z,-4.81
2022-12-11T03:29:26.164Z,-4.89
2022-12-11T03:34:55.652Z,-4.97
2022-12-11T03:40:07.724Z,-5.00
2022-12-11T03:45:12.863Z,-5.01
2022-12-11T03:50:18.897Z,-5.04
2022-12-11T03:55:25.446Z,-4.97
2022-12-11T04:00:28.241Z,-4.93
2022-12-11T04:05:30.988Z,-4.95
2022-12-11T04:10:33.908Z,-5.08
2022-12-11T04:15:37.805Z,-5.16
2022-12-11T04:20:59.086Z,-5.18
2022-12-11T04:26:10.781Z,-5.22
2022-12-11T04:31:15.063Z,-5.21
2022-12-11T04:36:17.998Z,-5.20
2022-12-11T04:41:20.768Z,-5.19
2022-12-11T04:46:25.490Z,-5.22
2022-12-11T04:51:29.037Z,-5.24
2022-12-11T04:56:31.769Z,-5.23
2022-12-11T05:01:34.542Z,-5.25
2022-12-11T05:06:37.335Z,-5.30
2022-12-11T05:11:40.057Z,-5.33
2022-12-11T05:16:42.828Z,-5.39
2022-12-11T05:21:45.602Z,-5.36
2022-12-11T05:26:48.332Z,-5.35
2022-12-11T05:31:51.522Z,-5.31
2022-12-11T05:36:54.255Z,-5.29
2022-12-11T05:41:57.117Z,-5.31
2022-12-11T05:47:00.008Z,-5.33
2022-12-11T05:52:02.770Z,-5.32
2022-12-11T05:57:05.490Z,-5.34
2022-12-11T06:02:08.284Z,-5.36
2022-12-11T06:07:11.090Z,-5.39
2022-12-11T06:12:13.821Z,-5.40
2022-12-11T06:17:16.516Z,-5.39
2022-12-11T06:22:19.289Z,-5.37
2022-12-11T06:27:22.040Z,-5.35
2022-12-11T06:32:24.870Z,-5.36
2022-12-11T06:37:27.612Z,-5.32
2022-12-11T06:42:31.044Z,-5.29
2022-12-11T06:47:33.847Z,-5.26
2022-12-11T06:52:36.597Z,-5.24
2022-12-11T06:57:39.409Z,-5.19
2022-12-11T07:02:42.216Z,-5.19
2022-12-11T07:07:45.275Z,-5.16
2022-12-11T07:12:48.076Z,-5.19
2022-12-11T07:17:50.844Z,-5.18
2022-12-11T07:22:54.461Z,-5.15
2022-12-11T07:27:57.800Z,-5.18
2022-12-11T07:33:00.571Z,-5.20
2022-12-11T07:38:03.453Z,-5.25
2022-12-11T07:43:06.312Z,-5.25
2022-12-11T07:48:09.029Z,-5.23
2022-12-11T07:53:11.869Z,-5.17
2022-12-11T07:58:14.615Z,-5.13
2022-12-11T08:03:17.569Z,-5.12
2022-12-11T08:08:20.448Z,-5.05
2022-12-11T08:13:23.332Z,-5.02
2022-12-11T08:18:26.503Z,-5.00
2022-12-11T08:23:29.334Z,-4.97
2022-12-11T08:28:32.900Z,-4.99
2022-12-11T08:33:37.667Z,-4.97
2022-12-11T08:38:41.491Z,-4.97
2022-12-11T08:43:44.661Z,-4.92
2022-12-11T08:48:47.438Z,-4.85
2022-12-11T08:53:51.341Z,-4.82
2022-12-11T08:58:54.400Z,-4.81
2022-12-11T09:03:57.512Z,-4.81
2022-12-11T09:09:01.047Z,-4.80
2022-12-11T09:14:07.908Z,-4.77
2022-12-11T09:19:16.494Z,-4.80
2022-12-11T09:24:19.267Z,-4.83
2022-12-11T09:29:22.028Z,-4.93
2022-12-11T09:34:29.091Z,-4.95
2022-12-11T09:39:34.383Z,-4.91
2022-12-11T09:44:46.419Z,-4.95
2022-12-11T09:49:55.079Z,-4.96
2022-12-11T09:55:02.010Z,-4.93
2022-12-11T10:00:05.911Z,-4.90
2022-12-11T10:05:14.907Z,-4.88
2022-12-11T10:10:30.196Z,-4.91
2022-12-11T10:15:54.317Z,-4.97
2022-12-11T10:20:57.354Z,-5.01
2022-12-11T10:26:07.195Z,-4.99
2022-12-11T10:31:31.510Z,-4.98
2022-12-11T10:36:39.730Z,-4.95
2022-12-11T10:41:45.277Z,-4.94
2022-12-11T10:47:01.104Z,-4.91
2022-12-11T10:52:22.183Z,-4.88
2022-12-11T10:57:31.164Z,-4.88
2022-12-11T11:02:41.701Z,-4.83
2022-12-11T11:07:44.665Z,-4.89
2022-12-11T11:12:50.164Z,-4.94
2022-12-11T11:17:56.361Z,-5.00
2022-12-11T11:23:02.842Z,-5.08
2022-12-11T11:28:15.584Z,-5.12
2022-12-11T11:33:20.845Z,-5.15
2022-12-11T11:38:46.712Z,-5.23
2022-12-11T11:43:56.815Z,-5.28
2022-12-11T11:49:14.921Z,-5.25
2022-12-11T11:54:35.703Z,-5.22
2022-12-11T11:59:49.558Z,-5.18
2022-12-11T12:04:53.280Z,-5.12
2022-12-11T12:10:11.438Z,-5.14
2022-12-11T12:15:33.801Z,-5.23
2022-12-11T12:21:03.387Z,-5.27
2022-12-11T12:26:17.864Z,-5.21
2022-12-11T12:31:20.581Z,-5.20
2022-12-11T12:36:41.853Z,-5.24
2022-12-11T12:42:18.791Z,-5.33
2022-12-11T12:47:22.741Z,-5.33
2022-12-11T12:52:34.815Z,-5.32
2022-12-11T12:57:39.881Z,-5.33
2022-12-11T13:02:50.880Z,-5.31
2022-12-11T13:07:57.286Z,-5.30
2022-12-11T13:13:02.141Z,-5.34
2022-12-11T13:18:33.448Z,-5.33
2022-12-11T13:23:37.524Z,-5.35
2022-12-11T13:28:40.212Z,-5.38
2022-12-11T13:33:47.168Z,-5.33
2022-12-11T13:38:56.256Z,-5.34
2022-12-11T13:43:59.897Z,-5.37
2022-12-11T13:49:06.963Z,-5.38
2022-12-11T13:54:17.335Z,-5.38
2022-12-11T13:59:25.251Z,-5.39
2022-12-11T14:04:29.685Z,-5.40
2022-12-11T14:09:32.610Z,-5.46
2022-12-11T14:14:45.723Z,-5.44
2022-12-11T14:19:49.197Z,-5.43
2022-12-11T14:24:54.908Z,-5.45
2022-12-11T14:29:57.721Z,-5.46
2022-12-11T14:35:04.479Z,-5.46
2022-12-11T14:40:17.344Z,-5.44
2022-12-11T14:45:33.626Z,-5.45
2022-12-11T14:50:39.133Z,-5.44
2022-12-11T14:55:42.049Z,-5.44
2022-12-11T15:00:55.780Z,-5.46
2022-12-11T15:05:58.541Z,-5.44
2022-12-11T15:11:11.701Z,-5.41
2022-12-11T15:16:15.352Z,-5.40
2022-12-11T15:21:19.248Z,-5.44
2022-12-11T15:26:34.619Z,-5.47
2022-12-11T15:31:37.412Z,-5.43
2022-12-11T15:36:40.088Z,-5.39
2022-12-11T15:41:43.210Z,-5.39
2022-12-11T15:46:46.158Z,-5.38
2022-12-11T15:51:48.901Z,-5.34
2022-12-11T15:56:51.643Z,-5.33
2022-12-11T16:01:54.493Z,-5.37
2022-12-11T16:06:57.414Z,-5.41
2022-12-11T16:12:00.215Z,-5.47
2022-12-11T16:17:02.930Z,-5.48
2022-12-11T16:22:06.919Z,-5.50
2022-12-11T16:27:10.168Z,-5.51
2022-12-11T16:32:13.060Z,-5.48
2022-12-11T16:37:15.874Z,-5.48
2022-12-11T16:42:18.610Z,-5.48
2022-12-11T16:47:21.478Z,-5.44
2022-12-11T16:52:24.192Z,-5.43
2022-12-11T16:57:26.961Z,-5.42
2022-12-11T17:02:29.756Z,-5.38
2022-12-11T17:07:33.445Z,-5.39
2022-12-11T17:12:36.329Z,-5.39
2022-12-11T17:17:39.047Z,-5.35
2022-12-11T17:22:42.196Z,-5.36
2022-12-11T17:27:45.127Z,-5.36
2022-12-11T17:32:48.760Z,-5.34
2022-12-11T17:37:51.603Z,-5.32
2022-12-11T17:42:54.828Z,-5.29
2022-12-11T17:47:57.686Z,-5.27
2022-12-11T17:53:00.461Z,-5.22
2022-12-11T17:58:03.367Z,-5.21
2022-12-11T18:03:06.143Z,-5.24
2022-12-11T18:08:09.025Z,-5.20
2022-12-11T18:13:13.275Z,-5.20
2022-12-11T18:18:16.050Z,-5.23
2022-12-11T18:23:18.788Z,-5.23
2022-12-11T18:28:21.817Z,-5.19
2022-12-11T18:33:24.549Z,-5.20
2022-12-11T18:38:27.358Z,-5.22
2022-12-11T18:43:30.740Z,-5.19
2022-12-11T18:48:33.758Z,-5.13
2022-12-11T18:53:37.210Z,-5.11
2022-12-11T18:58:41.174Z,-5.12
2022-12-11T19:03:44.382Z,-5.12
2022-12-11T19:08:47.289Z,-5.16
2022-12-11T19:13:51.760Z,-5.19
2022-12-11T19:18:54.496Z,-5.11
2022-12-11T19:23:57.791Z,-5.08
2022-12-11T19:29:01.170Z,-5.08
2022-12-11T19:34:03.964Z,-5.09
2022-12-11T19:39:12.635Z,-5.10
2022-12-11T19:44:16.055Z,-5.13
2022-12-11T19:49:18.813Z,-5.10
2022-12-11T19:54:21.822Z,-5.08
2022-12-11T19:59:24.505Z,-5.08
2022-12-11T20:04:28.322Z,-5.04
2022-12-11T20:09:31.080Z,-5.01
2022-12-11T20:14:33.789Z,-4.98
2022-12-11T20:19:36.531Z,-4.92
2022-12-11T20:24:39.609Z,-4.85
2022-12-11T20:29:42.310Z,-4.83
2022-12-11T20:34:45.073Z,-4.78
2022-12-11T20:39:47.832Z,-4.74
2022-12-11T20:44:50.632Z,-4.73
2022-12-11T20:49:53.420Z,-4.67
2022-12-11T20:54:56.194Z,-4.58
2022-12-11T20:59:59.241Z,-4.53
2022-12-11T21:05:02.053Z,-4.45
2022-12-11T21:10:05.149Z,-4.37
2022-12-11T21:15:08.215Z,-4.32
2022-12-11T21:20:11.173Z,-4.22
2022-12-11T21:25:14.261Z,-4.15
2022-12-11T21:30:17.743Z,-4.12
2022-12-11T21:35:20.387Z,-4.06
2022-12-11T21:40:23.177Z,-4.00
2022-12-11T21:50:48.678Z,-3.86
2022-12-11T21:55:51.435Z,-3.80
2022-12-11T22:00:54.185Z,-3.76
2022-12-11T22:05:56.972Z,-3.71
2022-12-11T22:11:01.183Z,-3.67
2022-12-11T22:16:04.049Z,-3.64
2022-12-11T22:21:07.015Z,-3.60
2022-12-11T22:26:19.615Z,-3.55
2022-12-11T22:31:25.289Z,-3.52
2022-12-11T22:36:28.119Z,-3.44
2022-12-11T22:41:32.623Z,-3.40
2022-12-11T22:46:35.451Z,-3.35
2022-12-11T22:51:38.852Z,-3.28
2022-12-11T22:56:41.705Z,-3.22
2022-12-11T23:01:44.507Z,-3.13
2022-12-11T23:06:47.347Z,-3.04
2022-12-11T23:11:50.626Z,-3.00
2022-12-11T23:16:53.378Z,-2.93
2022-12-11T23:21:56.262Z,-2.88
2022-12-11T23:27:00.602Z,-2.82
2022-12-11T23:32:03.550Z,-2.75
2022-12-11T23:37:06.414Z,-2.73
2022-12-11T23:42:09.517Z,-2.67
2022-12-11T23:47:12.448Z,-2.63
2022-12-11T23:52:15.341Z,-2.58
2022-12-11T23:57:18.064Z,-2.51
